Flight Track Log - Related Links

Times and Time Zones

All times are in EDT time to prevent confusion due to time zone crossing. See the TMC875 flight status page for this flight to view local times or setup timezone preferences in your user account.

Time Position Orientation Groundspeed Altitude Reporting Facility
EDT Latitude Longitude Course Direction KTS MPH feet Rate Location/Type
Tue 05:17:29 PM 45.7311 -111.0842 145° Southeast 182 209 9,500  Level Salt Center
Tue 05:18:30 PM 45.6911 -111.0272 135° Southeast 201 231 12,900 3,122 Climbing Salt Center
Tue 05:19:32 PM 45.6597 -110.9378 117° Southeast 257 296 15,900 2,927 Climbing Salt Center
Tue 05:20:00 PM 45.4207 -110.5914 125° Southeast  Level FlightAware
Tue 05:20:33 PM 45.6483 -110.8239 98° East 289 333 18,900  Level Salt Center
Tue 05:21:00 PM 45.3256 -110.5089 145° Southeast  Level FlightAware
Tue 05:21:35 PM 45.5833 -110.7419 139° Southeast 317 365 21,500  Level Salt Center
Tue 05:22:00 PM 45.2339 -110.4172 145° Southeast  Level FlightAware
Tue 05:22:36 PM 45.5078 -110.6722 147° Southeast 325 374 24,500  Level Salt Center
Tue 05:23:38 PM 45.4306 -110.6000 147° Southeast 329 379 27,400 2,537 Climbing Salt Center
Tue 05:24:39 PM 45.3394 -110.5172 147° Southeast 331 381 29,700 1,854 Climbing Salt Center
Tue 05:25:41 PM 45.2586 -110.4431 147° Southeast 355 409 31,200 1,415 Climbing Salt Center
Tue 05:26:42 PM 45.1761 -110.3672 147° Southeast 367 422 32,600 1,366 Climbing Salt Center
Tue 05:27:44 PM 45.0736 -110.2728 147° Southeast 373 429 34,000 1,171 Climbing Salt Center
Tue 05:28:45 PM 44.9881 -110.1933 147° Southeast 380 437 35,000 927 Climbing Salt Center
Tue 05:29:47 PM 44.9050 -110.1050 143° Southeast 390 449 35,900 927 Climbing Salt Center
Tue 05:30:48 PM 44.8147 -109.9883 137° Southeast 393 452 36,900 829 Climbing Salt Center
Tue 05:31:50 PM 44.7367 -109.8867 137° Southeast 396 456 37,600 726 Climbing Salt Center
Tue 05:32:52 PM 44.6506 -109.7783 138° Southeast 399 459 38,400 732 Climbing Salt Center
Tue 05:33:53 PM 44.5675 -109.6703 137° Southeast 393 452 39,100 537 Climbing Salt Center
Tue 05:34:55 PM 44.4908 -109.5717 137° Southeast 391 450 39,500 484 Climbing Salt Center
Tue 05:35:57 PM 44.4000 -109.4575 138° Southeast 392 451 40,100 537 Climbing Salt Center
Tue 05:36:58 PM 44.3158 -109.3531 138° Southeast 394 453 40,600 439 Climbing Salt Center
Tue 05:38:00 PM 44.2394 -109.2575 138° Southeast 387 445 41,000 195 Climbing Salt Center
Tue 05:39:01 PM 44.1494 -109.1450 138° Southeast 391 450 41,000  Level Salt Center
Tue 05:40:03 PM 44.0706 -109.0456 138° Southeast 399 459 41,000  Level Salt Center
Tue 05:41:05 PM 43.9758 -108.9303 139° Southeast 406 467 41,000  Level Salt Center
Tue 05:42:06 PM 43.8942 -108.8283 138° Southeast 414 476 41,000  Level Salt Center
Tue 05:43:08 PM 43.8111 -108.7267 139° Southeast 416 479 41,000  Level Salt Center
Tue 05:44:09 PM 43.7128 -108.6061 138° Southeast 423 487 41,000  Level Salt Center
Tue 05:45:11 PM 43.6281 -108.5017 138° Southeast 426 490 41,000  Level Salt Center
Tue 05:46:13 PM 43.5272 -108.3803 139° Southeast 431 496 41,000  Level Salt Center
Tue 05:47:14 PM 43.4408 -108.2797 140° Southeast 427 491 41,000  Level Salt Center
Tue 05:48:16 PM 43.3311 -108.1811 147° Southeast 424 488 41,000  Level Salt Center
Tue 05:49:17 PM 43.2386 -108.0975 147° Southeast 419 482 41,000  Level Salt Center
Tue 05:50:19 PM 43.1453 -108.0125 146° Southeast 418 481 41,000  Level Salt Center
Tue 05:51:20 PM 43.0394 -107.9139 146° Southeast 414 476 41,000  Level Salt Center
Tue 05:52:22 PM 42.9481 -107.8314 147° Southeast 412 474 41,000  Level Salt Center
Tue 05:53:24 PM 42.8433 -107.7308 145° Southeast 418 481 41,000  Level Salt Center
Tue 05:54:25 PM 42.7517 -107.6522 148° Southeast 411 473 41,000  Level Salt Center
Tue 05:55:27 PM 42.6453 -107.5569 147° Southeast 409 471 41,000  Level Salt Center
Tue 05:56:28 PM 42.5533 -107.4736 146° Southeast 412 474 41,000  Level Salt Center
Tue 05:57:30 PM 42.4608 -107.3919 147° Southeast 412 474 41,000  Level Salt Center
Tue 05:58:32 PM 42.3519 -107.2961 147° Southeast 417 480 41,000  Level Salt Center
Tue 05:59:33 PM 42.2608 -107.2144 146° Southeast 411 473 41,000  Level Salt Center
Tue 06:00:35 PM 42.1517 -107.1194 147° Southeast 414 476 41,000  Level Salt Center
Tue 06:01:36 PM 42.0622 -107.0383 146° Southeast 407 468 41,000  Level Salt Center
Tue 06:02:38 PM 41.9514 -106.9436 148° Southeast 417 480 41,000  Level Salt Center
Tue 06:03:40 PM 41.8597 -106.8628 147° Southeast 413 475 41,000  Level Salt Center
Tue 06:04:41 PM 41.7689 -106.7839 147° Southeast 406 467 41,000  Level Salt Center
Tue 06:05:49 PM 41.6597 -106.6894 147° Southeast 412 474 41,000  Level Denver Center
Tue 06:06:51 PM 41.5525 -106.5967 147° Southeast 411 473 41,000  Level Denver Center
Tue 06:08:05 PM 41.4611 -106.5183 147° Southeast 408 470 41,000  Level Denver Center
Tue 06:09:07 PM 41.3453 -106.4200 147° Southeast 401 461 41,000  Level Denver Center
Tue 06:10:09 PM 41.2483 -106.3375 147° Southeast 408 470 41,000  Level Denver Center
Tue 06:11:11 PM 41.1419 -106.2475 147° Southeast 407 468 41,000  Level Denver Center
Tue 06:12:13 PM 41.0514 -106.1697 147° Southeast 406 467 41,000  Level Denver Center
Tue 06:13:14 PM 40.9400 -106.0767 148° Southeast 408 470 41,000  Level Denver Center
Tue 06:14:16 PM 40.8422 -105.9958 148° Southeast 410 472 41,000  Level Denver Center
Tue 06:15:18 PM 40.7467 -105.9156 148° Southeast 405 466 41,000  Level Denver Center
Tue 06:16:20 PM 40.6494 -105.8331 147° Southeast 410 472 41,000  Level Denver Center
Tue 06:17:22 PM 40.5511 -105.7522 148° Southeast 413 475 41,000  Level Denver Center
Tue 06:18:23 PM 40.4528 -105.6708 148° Southeast 414 476 41,000  Level Denver Center
Tue 06:19:25 PM 40.3539 -105.5897 148° Southeast 414 476 41,000  Level Denver Center
Tue 06:20:27 PM 40.2544 -105.5089 148° Southeast 416 479 41,000  Level Denver Center
Tue 06:21:29 PM 40.1381 -105.4114 147° Southeast 420 483 41,000  Level Denver Center
Tue 06:22:31 PM 40.0378 -105.3300 148° Southeast 420 483 41,000  Level Denver Center
Tue 06:23:33 PM 39.9375 -105.2478 148° Southeast 423 487 41,000  Level Denver Center
Tue 06:24:34 PM 39.8375 -105.1689 149° Southeast 420 483 41,000  Level Denver Center
Tue 06:25:36 PM 39.7389 -105.0892 148° Southeast 415 478 41,000  Level Denver Center
Tue 06:26:38 PM 39.6397 -105.0092 148° Southeast 415 478 41,000  Level Denver Center
Tue 06:27:40 PM 39.5408 -104.9314 149° Southeast 414 476 41,000  Level Denver Center
Tue 06:28:42 PM 39.4253 -104.8386 148° Southeast 422 486 41,000  Level Denver Center
Tue 06:29:44 PM 39.3267 -104.7592 148° Southeast 417 480 41,000  Level Denver Center
Tue 06:30:46 PM 39.2261 -104.6792 148° Southeast 423 487 41,000  Level Denver Center
Tue 06:31:48 PM 39.1244 -104.5994 149° Southeast 423 487 41,000  Level Denver Center
Tue 06:32:49 PM 39.0244 -104.5194 148° Southeast 419 482 41,000  Level Denver Center
Tue 06:33:51 PM 38.9214 -104.4392 149° Southeast 423 487 41,000  Level Denver Center
Tue 06:34:53 PM 38.8006 -104.3419 148° Southeast 434 499 41,000  Level Denver Center
Tue 06:35:55 PM 38.6975 -104.2633 149° Southeast 429 494 41,000  Level Denver Center
Tue 06:36:57 PM 38.5958 -104.1825 148° Southeast 426 490 41,000  Level Denver Center
Tue 06:37:59 PM 38.4900 -104.1031 150° Southeast 422 486 41,000  Level Denver Center
Tue 06:39:13 PM 38.3942 -104.0308 149° Southeast 418 481 41,000  Level Denver Center
Tue 06:40:15 PM 38.2675 -103.9322 149° Southeast 417 480 41,000  Level Denver Center
Tue 06:41:17 PM 38.1731 -103.8606 149° Southeast 413 475 41,000  Level Denver Center
Tue 06:42:19 PM 38.0600 -103.7742 149° Southeast 420 483 41,000  Level Denver Center
Tue 06:43:20 PM 37.9636 -103.7014 149° Southeast 420 483 41,000  Level Denver Center
Tue 06:44:22 PM 37.8658 -103.6267 149° Southeast 425 489 41,000  Level Denver Center
Tue 06:45:24 PM 37.7503 -103.5386 149° Southeast 430 495 41,000  Level Denver Center
Tue 06:46:26 PM 37.6503 -103.4636 149° Southeast 432 497 41,000  Level Denver Center
Tue 06:47:28 PM 37.5333 -103.3758 149° Southeast 435 501 41,000  Level Denver Center
Tue 06:48:29 PM 37.4328 -103.3011 149° Southeast 437 503 41,000  Level Denver Center
Tue 06:49:31 PM 37.3142 -103.2131 149° Southeast 440 506 41,000  Level Denver Center
Tue 06:49:54 PM 37.2808 -103.1886 150° Southeast 439 505 41,000  Level Albuquerque Center
Tue 06:50:56 PM 37.1789 -103.1131 149° Southeast 441 507 41,000  Level Albuquerque Center
Tue 06:51:57 PM 37.0603 -103.0267 150° Southeast 441 507 41,000  Level Albuquerque Center
Tue 06:52:59 PM 36.9611 -102.9531 149° Southeast 433 498 41,000  Level Albuquerque Center
Tue 06:54:01 PM 36.8444 -102.8681 150° Southeast 434 499 41,000  Level Albuquerque Center
Tue 06:55:02 PM 36.7436 -102.7939 149° Southeast 436 502 41,000  Level Albuquerque Center
Tue 06:56:04 PM 36.6439 -102.7203 149° Southeast 437 503 41,000  Level Albuquerque Center
Tue 06:57:06 PM 36.5358 -102.6414 150° Southeast 439 505 41,000  Level Albuquerque Center
Tue 06:58:08 PM 36.4319 -102.5675 150° Southeast 434 499 41,000  Level Albuquerque Center
Tue 06:59:09 PM 36.3064 -102.4761 150° Southeast 435 501 41,000  Level Albuquerque Center
Tue 07:00:11 PM 36.2025 -102.4019 150° Southeast 434 499 41,000  Level Albuquerque Center
Tue 07:01:13 PM 36.0986 -102.3264 150° Southeast 433 498 41,000  Level Albuquerque Center
Tue 07:02:14 PM 35.9933 -102.2508 150° Southeast 436 502 41,000  Level Albuquerque Center
Tue 07:03:16 PM 35.8889 -102.1764 150° Southeast 435 501 41,000  Level Albuquerque Center
Tue 07:04:18 PM 35.7833 -102.1022 150° Southeast 436 502 41,000  Level Albuquerque Center
Tue 07:05:20 PM 35.6781 -102.0272 150° Southeast 437 503 41,000  Level Albuquerque Center
Tue 07:06:21 PM 35.5519 -101.9372 150° Southeast 437 503 41,000  Level Albuquerque Center
Tue 07:07:23 PM 35.4517 -101.8658 150° Southeast 434 499 41,000  Level Albuquerque Center
Tue 07:08:25 PM 35.3469 -101.7911 150° Southeast 431 496 41,000  Level Albuquerque Center
Tue 07:09:26 PM 35.2397 -101.7147 150° Southeast 436 502 41,000  Level Albuquerque Center
Tue 07:10:28 PM 35.1242 -101.6386 152° Southeast 444 511 41,000  Level Albuquerque Center
Tue 07:11:29 PM 35.0194 -101.5633 150° Southeast 437 503 41,000  Level Albuquerque Center
Tue 07:12:31 PM 34.9008 -101.4819 151° Southeast 448 516 41,000  Level Albuquerque Center
Tue 07:13:32 PM 34.7950 -101.4086 150° Southeast 441 507 41,000  Level Albuquerque Center
Tue 07:14:34 PM 34.6894 -101.3358 150° Southeast 438 504 41,000  Level Albuquerque Center
Tue 07:15:35 PM 34.5831 -101.2631 151° Southeast 438 504 41,000  Level Albuquerque Center
Tue 07:16:37 PM 34.4769 -101.1894 150° Southeast 439 505 41,000  Level Albuquerque Center
Tue 07:17:38 PM 34.3708 -101.1189 151° Southeast 438 504 41,000  Level Albuquerque Center
Tue 07:18:40 PM 34.2436 -101.0317 150° Southeast 438 504 41,000  Level Albuquerque Center
Tue 07:19:51 PM 34.1192 -100.9483 151° Southeast 438 504 41,000  Level Fort Center
Tue 07:20:51 PM 34.0247 -100.8892 153° Southeast 433 498 41,000  Level Fort Center
Tue 07:21:51 PM 33.9206 -100.8150 149° Southeast 428 493 41,000  Level Fort Center
Tue 07:22:51 PM 33.8158 -100.7458 151° Southeast 428 493 41,000  Level Fort Center
Tue 07:23:51 PM 33.7094 -100.6719 150° Southeast 422 486 41,000  Level Fort Center
Tue 07:24:51 PM 33.6047 -100.6033 151° Southeast 427 491 41,000  Level Fort Center
Tue 07:25:51 PM 33.5019 -100.5347 151° Southeast 427 491 41,000  Level Fort Center
Tue 07:26:51 PM 33.3953 -100.4639 151° Southeast 432 497 41,000  Level Fort Center
Tue 07:27:51 PM 33.2883 -100.3931 151° Southeast 432 497 41,000  Level Fort Center
Tue 07:28:51 PM 33.1836 -100.3250 151° Southeast 432 497 41,000  Level Fort Center
Tue 07:29:51 PM 33.0786 -100.2544 151° Southeast 427 491 41,000  Level Fort Center
Tue 07:30:51 PM 32.9717 -100.1842 151° Southeast 427 491 41,000  Level Fort Center
Tue 07:31:51 PM 32.8667 -100.1167 152° Southeast 427 491 41,000  Level Fort Center
Tue 07:32:51 PM 32.7617 -100.0517 152° Southeast 427 491 41,000  Level Fort Center
Tue 07:33:51 PM 32.6444 -99.9694 149° Southeast 427 491 41,000  Level Fort Center
Tue 07:34:51 PM 32.5372 -99.9022 152° Southeast 432 497 41,000  Level Fort Center
Tue 07:35:51 PM 32.4300 -99.8378 153° Southeast 432 497 41,000  Level Fort Center
Tue 07:36:51 PM 32.3244 -99.7833 156° South 427 491 41,000 -200 Level Fort Center
Tue 07:37:51 PM 32.2169 -99.7264 156° South 420 483 40,600 -1,000 Descending Fort Center
Tue 07:38:51 PM 32.1075 -99.6697 156° South 420 483 39,000 -1,600 Descending Fort Center
Tue 07:39:51 PM 32.0019 -99.6133 156° South 415 478 37,400 -1,600 Descending Fort Center
Tue 07:40:51 PM 31.8964 -99.5594 157° South 415 478 35,800 -1,600 Descending Fort Center
Tue 07:41:51 PM 31.7886 -99.5056 157° South 415 478 34,200 -1,500 Descending Fort Center
Tue 07:43:51 PM 31.5928 -99.4022 156° South 405 466 31,300 -1,484 Descending Houston Center
Tue 07:44:53 PM 31.4883 -99.3500 157° South 404 465 29,700 -1,500 Descending Houston Center
Tue 07:45:55 PM 31.3833 -99.2964 156° South 406 467 28,200 -1,355 Descending Houston Center
Tue 07:46:57 PM 31.2858 -99.2467 156° South 403 464 26,900 -1,500 Descending Houston Center
Tue 07:47:59 PM 31.1589 -99.1831 157° South 411 473 25,100 -1,645 Descending Houston Center
Tue 07:49:01 PM 31.0503 -99.1275 156° South 410 472 23,500 -1,548 Descending Houston Center
Tue 07:50:03 PM 30.9533 -99.0786 157° South 382 440 21,900 -1,500 Descending Houston Center
Tue 07:51:05 PM 30.8589 -99.0317 157° South 369 425 20,400 -1,440 Descending Houston Center
Tue 07:52:08 PM 30.7633 -98.9831 156° South 370 426 18,900 -1,452 Descending Houston Center
Tue 07:53:09 PM 30.6706 -98.9372 157° South 363 418 17,400 -1,415 Descending Houston Center
Tue 07:54:11 PM 30.5825 -98.8925 156° South 348 400 16,000 -1,355 Descending Houston Center
Tue 07:55:13 PM 30.4969 -98.8500 157° South 334 384 14,600 -1,452 Descending Houston Center
Tue 07:56:15 PM 30.3956 -98.7994 157° South 337 388 13,000 -1,452 Descending Houston Center
Tue 07:57:17 PM 30.3094 -98.7561 157° South 336 387 11,600 -1,345 Descending Houston Center
Tue 07:58:11 PM 30.2303 -98.7192 158° South 338 389 10,400 -889 Descending Houston Center
Tue 07:59:05 PM 30.1478 -98.7119 176° South 333 383 10,000 -343 Descending Houston Center
Tue 07:59:21 PM 30.1247 -98.7142 185° South 333 383 10,000  Level Houston Center
Tue 08:00:12 PM 30.0503 -98.7236 186° South 321 369 10,000  Level Houston Center
Tue 08:01:19 PM 29.9483 -98.7356 186° South 314 361 10,000 -632 Level Houston Center
Tue 08:02:25 PM 29.8656 -98.7478 187° South 271 312 8,600 -1,252 Descending Houston Center
Tue 08:03:14 PM 29.8069 -98.7258 162° South 253 291 7,600 -1,219 Descending Houston Center
Tue 08:03:29 PM 29.7908 -98.7178 157° South 258 297 7,300 -1,377 Descending Houston Center
Tue 08:04:15 PM 29.7414 -98.6975 160° South 248 285 6,200 -1,355 Descending Houston Center
Tue 08:04:31 PM 29.7264 -98.6883 152° Southeast 249 287 5,900 -1,475 Descending Houston Center
Tue 08:05:16 PM 29.6833 -98.6611 151° Southeast 237 273 4,700 -1,548 Descending Houston Center
Tue 08:05:33 PM 29.6689 -98.6433 133° Southeast 232 267 4,300 -1,180 Descending Houston Center
Tue 08:06:17 PM 29.6369 -98.6111 139° Southeast 224 258 3,500 -1,082 Descending Houston Center
Tue 08:06:34 PM 29.6264 -98.5947 127° Southeast 217 250 3,200 -909 Descending Houston Center
Tue 08:07:23 PM 29.6011 -98.5625 132° Southeast 154 177 2,500 -709 Descending Houston Center
Tue 08:08:24 PM 29.5794 -98.5339 131° Southeast 102 117 1,900 -590 Descending Houston Center
Tue 08:09:25 PM 29.5581 -98.5053 131° Southeast 111 128 1,300 -632 Descending Houston Center
Tue 08:09:40 PM 29.5522 -98.4969 129° Southeast 114 131 1,100 -800 Descending Houston Center
Tue 08:11:00 PM 29.5333 -98.4667 120° Southeast  Level FlightAware
Tue 08:18:00 PM 29.5340 -98.4691 120° Southeast  Level Estimated
Tue 08:19:00 PM 29.5333 -98.4667 120° Southeast  Level FlightAware
Tue 08:20:00 PM 29.5340 -98.4691 120° Southeast  Level Estimated

Login

Don't have an account? Register now (free) for customized features, flight alerts, and more!